createdAt,value
2023-04-03T00:02:52.631Z,14.50
2023-04-03T00:10:58.183Z,14.60
2023-04-03T00:19:06.575Z,14.70
2023-04-03T00:27:12.415Z,14.90
2023-04-03T00:35:22.124Z,15.00
2023-04-03T00:43:28.981Z,14.70
2023-04-03T00:51:37.389Z,14.70
2023-04-03T00:59:45.955Z,14.80
2023-04-03T01:07:55.330Z,14.70
2023-04-03T01:16:01.354Z,14.80
2023-04-03T01:24:25.869Z,15.00
2023-04-03T01:32:34.095Z,14.80
2023-04-03T01:41:17.113Z,14.90
2023-04-03T01:50:15.274Z,14.50
2023-04-03T01:58:20.971Z,14.20
2023-04-03T02:06:30.870Z,14.50
2023-04-03T02:14:36.700Z,14.70
2023-04-03T02:22:44.804Z,14.70
2023-04-03T02:30:51.050Z,14.80
2023-04-03T02:38:59.606Z,14.70
2023-04-03T02:47:05.293Z,14.80
2023-04-03T02:55:18.772Z,15.00
2023-04-03T03:03:27.158Z,14.80
2023-04-03T03:11:35.774Z,14.80
2023-04-03T03:19:41.765Z,14.70
2023-04-03T03:27:50.018Z,14.80
2023-04-03T03:35:56.433Z,14.90
2023-04-03T03:44:04.476Z,14.90
2023-04-03T03:52:11.972Z,15.10
2023-04-03T04:00:20.837Z,15.10
2023-04-03T04:08:32.138Z,15.00
2023-04-03T04:16:40.557Z,15.00
2023-04-03T04:24:51.018Z,15.00
2023-04-03T04:32:59.246Z,14.90
2023-04-03T04:41:06.029Z,15.10
2023-04-03T04:49:14.288Z,15.20
2023-04-03T04:57:19.765Z,15.00
2023-04-03T05:05:29.122Z,15.20
2023-04-03T05:13:35.082Z,15.10
2023-04-03T05:21:43.516Z,15.20
2023-04-03T05:29:52.702Z,15.30
2023-04-03T05:38:02.985Z,15.50
2023-04-03T05:46:15.401Z,15.50
2023-04-03T05:54:28.693Z,15.70
2023-04-03T06:02:49.520Z,16.10
2023-04-03T06:11:03.450Z,16.10
2023-04-03T06:19:09.300Z,16.10
2023-04-03T06:27:20.819Z,16.20
2023-04-03T06:35:26.606Z,16.30
2023-04-03T06:43:35.025Z,16.40
2023-04-03T06:51:40.917Z,16.50
2023-04-03T06:59:48.934Z,17.00
2023-04-03T07:07:54.414Z,17.40
2023-04-03T07:16:02.638Z,17.60
2023-04-03T07:24:10.120Z,18.40
2023-04-03T07:32:21.713Z,19.10
2023-04-03T07:40:27.200Z,19.50
2023-04-03T07:48:36.213Z,19.90
2023-04-03T07:56:41.628Z,20.30
2023-04-03T08:04:49.937Z,20.60
2023-04-03T08:12:55.796Z,20.50
2023-04-03T08:21:04.064Z,20.20
2023-04-03T08:29:09.536Z,20.00
2023-04-03T08:37:17.581Z,20.00
2023-04-03T08:45:29.415Z,20.10
2023-04-03T08:53:43.976Z,20.00
2023-04-03T09:01:50.132Z,20.00
2023-04-03T09:10:00.788Z,20.30
2023-04-03T09:18:10.742Z,20.70
2023-04-03T09:26:22.260Z,21.30
2023-04-03T09:34:31.004Z,21.90
2023-04-03T09:42:51.833Z,22.30
2023-04-03T09:51:05.632Z,22.50
2023-04-03T09:59:19.906Z,22.80
2023-04-03T10:07:38.345Z,23.20
2023-04-03T10:15:49.602Z,23.80
2023-04-03T10:24:03.615Z,24.20
2023-04-03T10:32:27.018Z,23.60
2023-04-03T10:40:38.986Z,23.30
2023-04-03T10:48:57.639Z,27.20
2023-04-03T10:57:12.404Z,28.60
2023-04-03T11:05:31.147Z,27.60
2023-04-03T11:13:41.973Z,27.10
2023-04-03T11:21:57.460Z,26.80
2023-04-03T11:30:04.462Z,24.00
2023-04-03T11:38:24.125Z,22.50
2023-04-03T11:46:58.281Z,21.50
2023-04-03T11:55:27.042Z,20.90
2023-04-03T12:04:05.184Z,20.30
2023-04-03T12:12:31.848Z,19.80
2023-04-03T12:20:59.599Z,19.30
2023-04-03T12:29:20.179Z,18.80
2023-04-03T12:37:43.665Z,19.10
2023-04-03T12:45:53.694Z,18.80
2023-04-03T12:54:05.560Z,18.20
2023-04-03T13:02:25.519Z,18.20
2023-04-03T13:10:31.179Z,17.90
2023-04-03T13:18:41.300Z,18.00
2023-04-03T13:26:47.437Z,18.10
2023-04-03T13:34:55.794Z,18.30
2023-04-03T13:43:07.467Z,17.90
2023-04-03T13:51:27.322Z,17.90
2023-04-03T13:59:34.318Z,18.00
2023-04-03T14:07:42.338Z,17.70
2023-04-03T14:15:52.385Z,17.70
2023-04-03T14:24:01.129Z,17.50
2023-04-03T14:32:14.772Z,16.50
2023-04-03T14:40:26.539Z,15.70
2023-04-03T14:48:34.448Z,16.70
2023-04-03T14:56:42.602Z,16.80
2023-04-03T15:04:48.189Z,17.10
2023-04-03T15:12:57.125Z,17.10
2023-04-03T15:21:02.957Z,17.10
2023-04-03T15:29:11.230Z,17.10
2023-04-03T15:37:17.018Z,17.20
2023-04-03T15:45:25.683Z,17.10
2023-04-03T15:53:33.602Z,17.00
2023-04-03T16:01:43.607Z,17.00
2023-04-03T16:09:49.230Z,16.90
2023-04-03T16:17:58.310Z,16.80
2023-04-03T16:26:18.906Z,16.80
2023-04-03T16:34:24.550Z,16.80
2023-04-03T16:42:32.628Z,16.70
2023-04-03T16:50:38.135Z,16.30
2023-04-03T16:58:46.353Z,16.10
2023-04-03T17:06:52.808Z,16.10
2023-04-03T17:15:00.837Z,16.00
2023-04-03T17:23:06.348Z,15.70
2023-04-03T17:31:14.381Z,15.60
2023-04-03T17:39:19.871Z,15.50
2023-04-03T17:47:28.833Z,15.40
2023-04-03T17:55:34.486Z,15.50
2023-04-03T18:03:42.817Z,15.60
2023-04-03T18:11:49.232Z,15.40
2023-04-03T18:19:57.355Z,15.60
2023-04-03T18:28:06.630Z,15.30
2023-04-03T18:44:41.992Z,15.00
2023-04-03T18:52:51.018Z,15.20
2023-04-03T19:00:56.599Z,14.90
2023-04-03T19:09:06.781Z,14.50
2023-04-03T19:17:12.368Z,14.60
2023-04-03T19:25:20.735Z,14.50
2023-04-03T19:33:26.395Z,14.60
2023-04-03T19:41:36.886Z,14.50
2023-04-03T19:49:42.792Z,14.60
2023-04-03T19:57:51.046Z,14.50
2023-04-03T20:05:58.024Z,14.50
2023-04-03T20:14:09.269Z,14.40
2023-04-03T20:22:15.211Z,14.60
2023-04-03T20:30:23.410Z,14.50
2023-04-03T20:38:29.037Z,14.40
2023-04-03T20:46:51.371Z,14.30
2023-04-03T20:55:00.535Z,14.20
2023-04-03T21:03:08.790Z,14.10
2023-04-03T21:11:46.156Z,14.20
2023-04-03T21:19:54.625Z,14.00
2023-04-03T21:28:00.328Z,14.00
2023-04-03T21:36:09.425Z,14.00
2023-04-03T21:44:14.911Z,14.00
2023-04-03T21:52:23.191Z,13.90
2023-04-03T22:00:28.843Z,13.80
2023-04-03T22:08:37.055Z,13.60
2023-04-03T22:16:46.351Z,13.50
2023-04-03T22:24:55.840Z,13.30
2023-04-03T22:33:01.425Z,13.20
2023-04-03T22:41:10.873Z,13.40
2023-04-03T22:49:16.455Z,13.30
2023-04-03T22:57:24.575Z,13.40
2023-04-03T23:05:31.963Z,13.30
2023-04-03T23:13:40.218Z,13.30
2023-04-03T23:21:46.010Z,13.00
2023-04-03T23:29:54.140Z,12.70
2023-04-03T23:37:59.643Z,12.60
2023-04-03T23:46:08.013Z,12.30
2023-04-03T23:54:13.416Z,12.30
